sensor_id;sensor_type;location;lat;lon;timestamp;temperature;humidity
55083;DHT22;40978;52.850;6.506;2022-07-23T00:00:49;14.40;99.90
55083;DHT22;40978;52.850;6.506;2022-07-23T00:03:15;14.30;99.90
55083;DHT22;40978;52.850;6.506;2022-07-23T00:05:41;14.20;99.90
55083;DHT22;40978;52.850;6.506;2022-07-23T00:08:07;14.30;99.90
55083;DHT22;40978;52.850;6.506;2022-07-23T00:10:34;14.10;99.90
55083;DHT22;40978;52.850;6.506;2022-07-23T00:12:59;14.20;99.90
55083;DHT22;40978;52.850;6.506;2022-07-23T00:15:25;14.10;99.90
55083;DHT22;40978;52.850;6.506;2022-07-23T00:17:51;14.00;99.90
55083;DHT22;40978;52.850;6.506;2022-07-23T00:20:17;14.00;99.90
55083;DHT22;40978;52.850;6.506;2022-07-23T00:22:50;13.90;99.90
55083;DHT22;40978;52.850;6.506;2022-07-23T00:25:16;13.90;99.90
55083;DHT22;40978;52.850;6.506;2022-07-23T00:27:42;13.80;99.90
55083;DHT22;40978;52.850;6.506;2022-07-23T00:30:09;13.80;99.90
55083;DHT22;40978;52.850;6.506;2022-07-23T00:32:55;13.70;99.90
55083;DHT22;40978;52.850;6.506;2022-07-23T00:35:30;13.70;99.90
55083;DHT22;40978;52.850;6.506;2022-07-23T00:37:57;13.60;99.90
55083;DHT22;40978;52.850;6.506;2022-07-23T00:40:23;13.60;99.90
55083;DHT22;40978;52.850;6.506;2022-07-23T00:42:49;13.50;99.90
55083;DHT22;40978;52.850;6.506;2022-07-23T00:45:15;13.50;99.90
55083;DHT22;40978;52.850;6.506;2022-07-23T00:47:41;13.40;99.90
55083;DHT22;40978;52.850;6.506;2022-07-23T00:50:09;13.40;99.90
55083;DHT22;40978;52.850;6.506;2022-07-23T00:52:37;13.40;99.90
55083;DHT22;40978;52.850;6.506;2022-07-23T00:55:07;13.30;99.90
55083;DHT22;40978;52.850;6.506;2022-07-23T00:57:34;13.30;99.90
55083;DHT22;40978;52.850;6.506;2022-07-23T00:59:59;13.20;99.90
55083;DHT22;40978;52.850;6.506;2022-07-23T01:02:26;13.20;99.90
55083;DHT22;40978;52.850;6.506;2022-07-23T01:04:52;13.20;99.90
55083;DHT22;40978;52.850;6.506;2022-07-23T01:07:18;13.10;99.90
55083;DHT22;40978;52.850;6.506;2022-07-23T01:09:45;13.10;99.90
55083;DHT22;40978;52.850;6.506;2022-07-23T01:12:11;13.10;99.90
55083;DHT22;40978;52.850;6.506;2022-07-23T01:14:37;13.00;99.90
55083;DHT22;40978;52.850;6.506;2022-07-23T01:17:03;13.00;99.90
55083;DHT22;40978;52.850;6.506;2022-07-23T01:19:29;12.90;99.90
55083;DHT22;40978;52.850;6.506;2022-07-23T01:21:55;12.90;99.90
55083;DHT22;40978;52.850;6.506;2022-07-23T01:24:22;12.80;99.90
55083;DHT22;40978;52.850;6.506;2022-07-23T01:26:49;12.80;99.90
55083;DHT22;40978;52.850;6.506;2022-07-23T01:29:15;12.80;99.90
55083;DHT22;40978;52.850;6.506;2022-07-23T01:31:41;12.70;99.90
55083;DHT22;40978;52.850;6.506;2022-07-23T01:34:07;12.70;99.90
55083;DHT22;40978;52.850;6.506;2022-07-23T01:36:34;12.70;99.90
55083;DHT22;40978;52.850;6.506;2022-07-23T01:39:00;12.70;99.90
55083;DHT22;40978;52.850;6.506;2022-07-23T01:41:26;12.70;99.90
55083;DHT22;40978;52.850;6.506;2022-07-23T01:43:52;12.70;99.90
55083;DHT22;40978;52.850;6.506;2022-07-23T01:46:17;12.60;99.90
55083;DHT22;40978;52.850;6.506;2022-07-23T01:48:43;12.60;99.90
55083;DHT22;40978;52.850;6.506;2022-07-23T01:51:09;12.60;99.90
55083;DHT22;40978;52.850;6.506;2022-07-23T01:53:34;12.50;99.90
55083;DHT22;40978;52.850;6.506;2022-07-23T01:56:00;12.60;99.90
55083;DHT22;40978;52.850;6.506;2022-07-23T01:58:27;12.60;99.90
55083;DHT22;40978;52.850;6.506;2022-07-23T02:00:53;12.50;99.90
55083;DHT22;40978;52.850;6.506;2022-07-23T02:03:19;12.50;99.90
55083;DHT22;40978;52.850;6.506;2022-07-23T02:05:45;12.40;99.90
55083;DHT22;40978;52.850;6.506;2022-07-23T02:08:11;12.50;99.90
55083;DHT22;40978;52.850;6.506;2022-07-23T02:10:37;12.40;99.90
55083;DHT22;40978;52.850;6.506;2022-07-23T02:13:03;12.40;99.90
55083;DHT22;40978;52.850;6.506;2022-07-23T02:15:28;12.30;99.90
55083;DHT22;40978;52.850;6.506;2022-07-23T02:17:55;12.30;99.90
55083;DHT22;40978;52.850;6.506;2022-07-23T02:20:21;12.30;99.90
55083;DHT22;40978;52.850;6.506;2022-07-23T02:22:47;12.30;99.90
55083;DHT22;40978;52.850;6.506;2022-07-23T02:25:12;12.30;99.90
55083;DHT22;40978;52.850;6.506;2022-07-23T02:27:38;12.20;99.90
55083;DHT22;40978;52.850;6.506;2022-07-23T02:30:04;12.20;99.90
55083;DHT22;40978;52.850;6.506;2022-07-23T02:32:30;12.20;99.90
55083;DHT22;40978;52.850;6.506;2022-07-23T02:34:56;12.20;99.90
55083;DHT22;40978;52.850;6.506;2022-07-23T02:37:22;12.20;99.90
55083;DHT22;40978;52.850;6.506;2022-07-23T02:39:47;12.20;99.90
55083;DHT22;40978;52.850;6.506;2022-07-23T02:42:14;12.20;99.90
55083;DHT22;40978;52.850;6.506;2022-07-23T02:44:40;12.20;99.90
55083;DHT22;40978;52.850;6.506;2022-07-23T02:47:06;12.20;99.90
55083;DHT22;40978;52.850;6.506;2022-07-23T02:49:32;12.10;99.90
55083;DHT22;40978;52.850;6.506;2022-07-23T02:51:58;12.10;99.90
55083;DHT22;40978;52.850;6.506;2022-07-23T02:54:24;12.10;99.90
55083;DHT22;40978;52.850;6.506;2022-07-23T02:56:49;12.10;99.90
55083;DHT22;40978;52.850;6.506;2022-07-23T02:59:17;12.10;99.90
55083;DHT22;40978;52.850;6.506;2022-07-23T03:01:44;12.10;99.90
55083;DHT22;40978;52.850;6.506;2022-07-23T03:04:10;12.00;99.90
55083;DHT22;40978;52.850;6.506;2022-07-23T03:06:35;12.00;99.90
55083;DHT22;40978;52.850;6.506;2022-07-23T03:09:02;11.90;99.90
55083;DHT22;40978;52.850;6.506;2022-07-23T03:11:28;11.90;99.90
55083;DHT22;40978;52.850;6.506;2022-07-23T03:13:54;11.90;99.90
55083;DHT22;40978;52.850;6.506;2022-07-23T03:16:19;11.90;99.90
55083;DHT22;40978;52.850;6.506;2022-07-23T03:18:45;11.90;99.90
55083;DHT22;40978;52.850;6.506;2022-07-23T03:21:10;11.80;99.90
55083;DHT22;40978;52.850;6.506;2022-07-23T03:23:36;11.80;99.90
55083;DHT22;40978;52.850;6.506;2022-07-23T03:26:02;11.80;99.90
55083;DHT22;40978;52.850;6.506;2022-07-23T03:28:28;11.80;99.90
55083;DHT22;40978;52.850;6.506;2022-07-23T03:30:53;11.80;99.90
55083;DHT22;40978;52.850;6.506;2022-07-23T03:33:19;11.80;99.90
55083;DHT22;40978;52.850;6.506;2022-07-23T03:35:46;11.70;99.90
55083;DHT22;40978;52.850;6.506;2022-07-23T03:38:13;11.70;99.90
55083;DHT22;40978;52.850;6.506;2022-07-23T03:40:39;11.70;99.90
55083;DHT22;40978;52.850;6.506;2022-07-23T03:43:05;11.60;99.90
55083;DHT22;40978;52.850;6.506;2022-07-23T03:45:31;11.60;99.90
55083;DHT22;40978;52.850;6.506;2022-07-23T03:47:57;11.60;99.90
55083;DHT22;40978;52.850;6.506;2022-07-23T03:50:23;11.60;99.90
55083;DHT22;40978;52.850;6.506;2022-07-23T03:52:49;11.50;99.90
55083;DHT22;40978;52.850;6.506;2022-07-23T03:55:15;11.60;99.90
55083;DHT22;40978;52.850;6.506;2022-07-23T03:57:41;11.50;99.90
55083;DHT22;40978;52.850;6.506;2022-07-23T04:00:08;11.50;99.90
55083;DHT22;40978;52.850;6.506;2022-07-23T04:02:36;11.50;99.90
55083;DHT22;40978;52.850;6.506;2022-07-23T04:05:02;11.50;99.90
55083;DHT22;40978;52.850;6.506;2022-07-23T04:07:28;11.50;99.90
55083;DHT22;40978;52.850;6.506;2022-07-23T04:09:54;11.40;99.90
55083;DHT22;40978;52.850;6.506;2022-07-23T04:12:19;11.50;99.90
55083;DHT22;40978;52.850;6.506;2022-07-23T04:14:45;11.50;99.90
55083;DHT22;40978;52.850;6.506;2022-07-23T04:17:12;11.50;99.90
55083;DHT22;40978;52.850;6.506;2022-07-23T04:19:37;11.50;99.90
55083;DHT22;40978;52.850;6.506;2022-07-23T04:22:07;11.60;99.90
55083;DHT22;40978;52.850;6.506;2022-07-23T04:24:33;11.60;99.90
55083;DHT22;40978;52.850;6.506;2022-07-23T04:26:59;11.60;99.90
55083;DHT22;40978;52.850;6.506;2022-07-23T04:29:25;11.60;99.90
55083;DHT22;40978;52.850;6.506;2022-07-23T04:31:51;11.70;99.90
55083;DHT22;40978;52.850;6.506;2022-07-23T04:34:16;11.70;99.90
55083;DHT22;40978;52.850;6.506;2022-07-23T04:36:42;11.70;99.90
55083;DHT22;40978;52.850;6.506;2022-07-23T04:39:08;11.80;99.90
55083;DHT22;40978;52.850;6.506;2022-07-23T04:41:34;11.90;99.90
55083;DHT22;40978;52.850;6.506;2022-07-23T04:44:00;12.00;99.90
55083;DHT22;40978;52.850;6.506;2022-07-23T04:46:26;12.10;99.90
55083;DHT22;40978;52.850;6.506;2022-07-23T04:48:51;12.10;99.90
55083;DHT22;40978;52.850;6.506;2022-07-23T04:51:17;12.20;99.90
55083;DHT22;40978;52.850;6.506;2022-07-23T04:53:43;12.30;99.90
55083;DHT22;40978;52.850;6.506;2022-07-23T04:56:09;12.40;99.90
55083;DHT22;40978;52.850;6.506;2022-07-23T04:58:35;12.50;99.90
55083;DHT22;40978;52.850;6.506;2022-07-23T05:01:00;12.50;99.90
55083;DHT22;40978;52.850;6.506;2022-07-23T05:03:26;12.60;99.90
55083;DHT22;40978;52.850;6.506;2022-07-23T05:05:52;12.70;99.90
55083;DHT22;40978;52.850;6.506;2022-07-23T05:08:18;12.80;99.90
55083;DHT22;40978;52.850;6.506;2022-07-23T05:10:43;12.90;99.90
55083;DHT22;40978;52.850;6.506;2022-07-23T05:13:09;13.30;99.90
55083;DHT22;40978;52.850;6.506;2022-07-23T05:15:35;13.80;99.90
55083;DHT22;40978;52.850;6.506;2022-07-23T05:18:00;14.20;99.90
55083;DHT22;40978;52.850;6.506;2022-07-23T05:20:26;14.40;99.90
55083;DHT22;40978;52.850;6.506;2022-07-23T05:22:52;14.60;99.90
55083;DHT22;40978;52.850;6.506;2022-07-23T05:25:18;15.00;99.90
55083;DHT22;40978;52.850;6.506;2022-07-23T05:27:43;15.30;99.90
55083;DHT22;40978;52.850;6.506;2022-07-23T05:30:10;15.30;99.90
55083;DHT22;40978;52.850;6.506;2022-07-23T05:32:36;15.10;99.90
55083;DHT22;40978;52.850;6.506;2022-07-23T05:35:05;15.00;99.90
55083;DHT22;40978;52.850;6.506;2022-07-23T05:37:32;14.90;99.90
55083;DHT22;40978;52.850;6.506;2022-07-23T05:40:05;14.80;99.90
55083;DHT22;40978;52.850;6.506;2022-07-23T05:42:33;14.70;99.90
55083;DHT22;40978;52.850;6.506;2022-07-23T05:44:59;14.60;99.90
55083;DHT22;40978;52.850;6.506;2022-07-23T05:47:25;14.60;99.90
55083;DHT22;40978;52.850;6.506;2022-07-23T05:49:50;14.60;99.90
55083;DHT22;40978;52.850;6.506;2022-07-23T05:52:16;14.70;99.90
55083;DHT22;40978;52.850;6.506;2022-07-23T05:54:42;14.90;99.90
55083;DHT22;40978;52.850;6.506;2022-07-23T05:57:07;15.00;99.90
55083;DHT22;40978;52.850;6.506;2022-07-23T05:59:33;15.00;99.90
55083;DHT22;40978;52.850;6.506;2022-07-23T06:01:59;15.10;99.90
55083;DHT22;40978;52.850;6.506;2022-07-23T06:04:25;15.20;99.90
55083;DHT22;40978;52.850;6.506;2022-07-23T06:06:51;15.20;99.90
55083;DHT22;40978;52.850;6.506;2022-07-23T06:09:16;15.30;99.90
55083;DHT22;40978;52.850;6.506;2022-07-23T06:11:42;15.40;99.90
55083;DHT22;40978;52.850;6.506;2022-07-23T06:14:08;15.50;99.90
55083;DHT22;40978;52.850;6.506;2022-07-23T06:16:33;15.60;99.90
55083;DHT22;40978;52.850;6.506;2022-07-23T06:18:59;15.70;99.90
55083;DHT22;40978;52.850;6.506;2022-07-23T06:21:25;15.80;99.90
55083;DHT22;40978;52.850;6.506;2022-07-23T06:23:50;16.00;99.90
55083;DHT22;40978;52.850;6.506;2022-07-23T06:26:16;16.10;99.90
55083;DHT22;40978;52.850;6.506;2022-07-23T06:28:42;16.20;99.90
55083;DHT22;40978;52.850;6.506;2022-07-23T06:31:07;16.30;99.90
55083;DHT22;40978;52.850;6.506;2022-07-23T06:33:33;16.50;99.90
55083;DHT22;40978;52.850;6.506;2022-07-23T06:35:59;16.60;99.90
55083;DHT22;40978;52.850;6.506;2022-07-23T06:38:25;16.70;99.90
55083;DHT22;40978;52.850;6.506;2022-07-23T06:40:51;16.80;99.90
55083;DHT22;40978;52.850;6.506;2022-07-23T06:43:17;16.90;99.90
55083;DHT22;40978;52.850;6.506;2022-07-23T06:45:42;17.00;99.90
55083;DHT22;40978;52.850;6.506;2022-07-23T06:48:08;17.00;99.90
55083;DHT22;40978;52.850;6.506;2022-07-23T06:50:34;17.10;99.90
55083;DHT22;40978;52.850;6.506;2022-07-23T06:53:00;17.10;99.90
55083;DHT22;40978;52.850;6.506;2022-07-23T06:55:26;17.20;99.90
55083;DHT22;40978;52.850;6.506;2022-07-23T06:57:52;17.20;99.90
55083;DHT22;40978;52.850;6.506;2022-07-23T07:00:18;17.30;99.90
55083;DHT22;40978;52.850;6.506;2022-07-23T07:02:43;17.40;99.90
55083;DHT22;40978;52.850;6.506;2022-07-23T07:05:09;17.40;99.90
55083;DHT22;40978;52.850;6.506;2022-07-23T07:07:35;17.50;99.90
55083;DHT22;40978;52.850;6.506;2022-07-23T07:10:04;17.70;99.90
55083;DHT22;40978;52.850;6.506;2022-07-23T07:12:30;17.80;99.90
55083;DHT22;40978;52.850;6.506;2022-07-23T07:14:56;17.90;99.90
55083;DHT22;40978;52.850;6.506;2022-07-23T07:17:22;18.00;99.90
55083;DHT22;40978;52.850;6.506;2022-07-23T07:19:48;18.10;99.90
55083;DHT22;40978;52.850;6.506;2022-07-23T07:22:14;18.10;99.90
55083;DHT22;40978;52.850;6.506;2022-07-23T07:24:40;18.30;99.90
55083;DHT22;40978;52.850;6.506;2022-07-23T07:27:05;18.40;99.90
55083;DHT22;40978;52.850;6.506;2022-07-23T07:29:31;18.50;99.90
55083;DHT22;40978;52.850;6.506;2022-07-23T07:31:57;18.50;99.90
55083;DHT22;40978;52.850;6.506;2022-07-23T07:34:22;18.40;99.90
55083;DHT22;40978;52.850;6.506;2022-07-23T07:36:48;18.40;99.90
55083;DHT22;40978;52.850;6.506;2022-07-23T07:39:15;18.60;99.90
55083;DHT22;40978;52.850;6.506;2022-07-23T07:41:40;18.70;99.90
55083;DHT22;40978;52.850;6.506;2022-07-23T07:44:06;18.80;99.90
55083;DHT22;40978;52.850;6.506;2022-07-23T07:46:32;18.80;99.90
55083;DHT22;40978;52.850;6.506;2022-07-23T07:48:58;19.00;99.90
55083;DHT22;40978;52.850;6.506;2022-07-23T07:51:23;19.30;99.90
55083;DHT22;40978;52.850;6.506;2022-07-23T07:53:49;19.40;99.90
55083;DHT22;40978;52.850;6.506;2022-07-23T07:56:15;19.40;99.90
55083;DHT22;40978;52.850;6.506;2022-07-23T07:58:40;19.10;99.90
55083;DHT22;40978;52.850;6.506;2022-07-23T08:01:06;18.90;99.90
55083;DHT22;40978;52.850;6.506;2022-07-23T08:03:32;18.90;99.90
55083;DHT22;40978;52.850;6.506;2022-07-23T08:05:58;19.10;99.90
55083;DHT22;40978;52.850;6.506;2022-07-23T08:08:24;19.40;99.90
55083;DHT22;40978;52.850;6.506;2022-07-23T08:10:50;19.60;99.90
55083;DHT22;40978;52.850;6.506;2022-07-23T08:13:16;19.70;99.90
55083;DHT22;40978;52.850;6.506;2022-07-23T08:15:42;19.60;99.90
55083;DHT22;40978;52.850;6.506;2022-07-23T08:18:08;19.40;99.90
55083;DHT22;40978;52.850;6.506;2022-07-23T08:20:34;19.70;99.90
55083;DHT22;40978;52.850;6.506;2022-07-23T08:23:04;20.10;99.90
55083;DHT22;40978;52.850;6.506;2022-07-23T08:25:36;20.80;99.90
55083;DHT22;40978;52.850;6.506;2022-07-23T08:28:03;21.40;99.90
55083;DHT22;40978;52.850;6.506;2022-07-23T08:30:30;22.00;99.90
55083;DHT22;40978;52.850;6.506;2022-07-23T08:33:02;22.50;99.90
55083;DHT22;40978;52.850;6.506;2022-07-23T08:37:56;23.40;93.30
55083;DHT22;40978;52.850;6.506;2022-07-23T08:40:23;23.20;92.00
55083;DHT22;40978;52.850;6.506;2022-07-23T08:42:50;22.80;90.40
55083;DHT22;40978;52.850;6.506;2022-07-23T08:45:21;22.90;88.80
55083;DHT22;40978;52.850;6.506;2022-07-23T08:47:52;22.90;86.70
55083;DHT22;40978;52.850;6.506;2022-07-23T08:50:19;22.80;83.00
55083;DHT22;40978;52.850;6.506;2022-07-23T08:52:44;22.50;83.70
55083;DHT22;40978;52.850;6.506;2022-07-23T08:55:11;22.50;88.00
55083;DHT22;40978;52.850;6.506;2022-07-23T08:57:37;22.60;90.40
55083;DHT22;40978;52.850;6.506;2022-07-23T09:00:04;22.40;90.10
55083;DHT22;40978;52.850;6.506;2022-07-23T09:02:39;22.20;89.00
55083;DHT22;40978;52.850;6.506;2022-07-23T09:05:05;22.30;88.40
55083;DHT22;40978;52.850;6.506;2022-07-23T09:07:31;22.70;88.10
55083;DHT22;40978;52.850;6.506;2022-07-23T09:10:08;23.30;86.10
55083;DHT22;40978;52.850;6.506;2022-07-23T09:12:35;23.60;77.40
55083;DHT22;40978;52.850;6.506;2022-07-23T09:15:10;23.40;76.30
55083;DHT22;40978;52.850;6.506;2022-07-23T09:17:42;23.20;78.30
55083;DHT22;40978;52.850;6.506;2022-07-23T09:20:10;23.50;76.70
55083;DHT22;40978;52.850;6.506;2022-07-23T09:22:37;23.80;77.40
55083;DHT22;40978;52.850;6.506;2022-07-23T09:25:09;23.80;74.90
55083;DHT22;40978;52.850;6.506;2022-07-23T09:27:54;23.70;73.40
55083;DHT22;40978;52.850;6.506;2022-07-23T09:30:23;23.20;71.60
55083;DHT22;40978;52.850;6.506;2022-07-23T09:35:46;22.40;72.80
55083;DHT22;40978;52.850;6.506;2022-07-23T09:38:13;22.00;71.80
55083;DHT22;40978;52.850;6.506;2022-07-23T09:40:39;22.00;78.50
55083;DHT22;40978;52.850;6.506;2022-07-23T09:43:04;22.70;80.30
55083;DHT22;40978;52.850;6.506;2022-07-23T09:45:30;23.40;78.00
55083;DHT22;40978;52.850;6.506;2022-07-23T09:48:15;23.90;75.10
55083;DHT22;40978;52.850;6.506;2022-07-23T09:50:43;23.80;69.00
55083;DHT22;40978;52.850;6.506;2022-07-23T09:53:09;23.80;70.10
55083;DHT22;40978;52.850;6.506;2022-07-23T09:55:37;23.90;69.00
55083;DHT22;40978;52.850;6.506;2022-07-23T09:58:06;23.80;69.30
55083;DHT22;40978;52.850;6.506;2022-07-23T10:00:37;23.50;68.00
55083;DHT22;40978;52.850;6.506;2022-07-23T10:03:03;23.30;69.40
55083;DHT22;40978;52.850;6.506;2022-07-23T10:05:31;23.00;72.50
55083;DHT22;40978;52.850;6.506;2022-07-23T10:07:59;23.10;73.00
55083;DHT22;40978;52.850;6.506;2022-07-23T10:10:27;23.50;72.50
55083;DHT22;40978;52.850;6.506;2022-07-23T10:12:55;23.60;71.50
55083;DHT22;40978;52.850;6.506;2022-07-23T10:15:20;23.40;71.10
55083;DHT22;40978;52.850;6.506;2022-07-23T10:17:47;23.30;71.60
55083;DHT22;40978;52.850;6.506;2022-07-23T10:20:13;23.50;72.50
55083;DHT22;40978;52.850;6.506;2022-07-23T10:31:17;24.60;66.40
55083;DHT22;40978;52.850;6.506;2022-07-23T10:37:17;24.70;62.10
55083;DHT22;40978;52.850;6.506;2022-07-23T10:42:36;24.10;65.60
55083;DHT22;40978;52.850;6.506;2022-07-23T10:47:50;24.00;66.50
55083;DHT22;40978;52.850;6.506;2022-07-23T10:50:27;24.00;66.80
55083;DHT22;40978;52.850;6.506;2022-07-23T10:53:12;23.80;66.40
55083;DHT22;40978;52.850;6.506;2022-07-23T10:55:40;23.70;66.10
55083;DHT22;40978;52.850;6.506;2022-07-23T10:58:06;23.80;68.60
55083;DHT22;40978;52.850;6.506;2022-07-23T11:00:33;24.20;68.80
55083;DHT22;40978;52.850;6.506;2022-07-23T11:03:01;24.60;68.20
55083;DHT22;40978;52.850;6.506;2022-07-23T11:05:45;25.10;66.40
55083;DHT22;40978;52.850;6.506;2022-07-23T11:08:15;25.70;63.20
55083;DHT22;40978;52.850;6.506;2022-07-23T11:10:52;26.00;64.20
55083;DHT22;40978;52.850;6.506;2022-07-23T11:31:59;24.10;66.60
55083;DHT22;40978;52.850;6.506;2022-07-23T11:34:32;24.10;67.90
55083;DHT22;40978;52.850;6.506;2022-07-23T11:36:59;24.50;66.70
55083;DHT22;40978;52.850;6.506;2022-07-23T11:39:27;24.60;64.70
55083;DHT22;40978;52.850;6.506;2022-07-23T11:41:53;24.30;64.30
55083;DHT22;40978;52.850;6.506;2022-07-23T11:47:10;24.30;66.90
55083;DHT22;40978;52.850;6.506;2022-07-23T11:49:55;24.30;64.20
55083;DHT22;40978;52.850;6.506;2022-07-23T11:52:22;24.00;64.90
55083;DHT22;40978;52.850;6.506;2022-07-23T11:54:52;23.80;66.50
55083;DHT22;40978;52.850;6.506;2022-07-23T11:57:19;23.70;67.10
55083;DHT22;40978;52.850;6.506;2022-07-23T11:59:47;23.60;66.60
55083;DHT22;40978;52.850;6.506;2022-07-23T12:02:14;23.50;67.70
55083;DHT22;40978;52.850;6.506;2022-07-23T12:04:48;23.60;68.60
55083;DHT22;40978;52.850;6.506;2022-07-23T12:15:24;24.40;66.70
55083;DHT22;40978;52.850;6.506;2022-07-23T12:17:52;24.40;67.20
55083;DHT22;40978;52.850;6.506;2022-07-23T12:20:23;24.20;66.60
55083;DHT22;40978;52.850;6.506;2022-07-23T12:22:52;24.00;68.70
55083;DHT22;40978;52.850;6.506;2022-07-23T12:25:20;23.80;67.40
55083;DHT22;40978;52.850;6.506;2022-07-23T12:30:42;23.40;70.30
55083;DHT22;40978;52.850;6.506;2022-07-23T12:33:10;23.40;69.20
55083;DHT22;40978;52.850;6.506;2022-07-23T12:35:44;23.50;72.00
55083;DHT22;40978;52.850;6.506;2022-07-23T12:38:16;24.10;69.10
55083;DHT22;40978;52.850;6.506;2022-07-23T12:43:36;24.50;68.00
55083;DHT22;40978;52.850;6.506;2022-07-23T12:48:37;24.90;68.70
55083;DHT22;40978;52.850;6.506;2022-07-23T12:53:41;24.80;67.60
55083;DHT22;40978;52.850;6.506;2022-07-23T12:56:16;24.80;67.60
55083;DHT22;40978;52.850;6.506;2022-07-23T12:58:51;24.50;67.00
55083;DHT22;40978;52.850;6.506;2022-07-23T13:04:13;24.20;69.10
55083;DHT22;40978;52.850;6.506;2022-07-23T13:06:47;24.00;67.90
55083;DHT22;40978;52.850;6.506;2022-07-23T13:09:21;23.80;70.60
55083;DHT22;40978;52.850;6.506;2022-07-23T13:11:48;23.70;70.60
55083;DHT22;40978;52.850;6.506;2022-07-23T13:14:15;23.60;69.50
55083;DHT22;40978;52.850;6.506;2022-07-23T13:16:41;23.60;69.50
55083;DHT22;40978;52.850;6.506;2022-07-23T13:19:07;23.60;70.00
55083;DHT22;40978;52.850;6.506;2022-07-23T13:21:33;23.90;69.80
55083;DHT22;40978;52.850;6.506;2022-07-23T13:23:59;24.40;70.40
55083;DHT22;40978;52.850;6.506;2022-07-23T13:26:26;24.70;68.80
55083;DHT22;40978;52.850;6.506;2022-07-23T13:28:52;25.00;69.70
55083;DHT22;40978;52.850;6.506;2022-07-23T13:31:18;25.50;68.00
55083;DHT22;40978;52.850;6.506;2022-07-23T13:33:44;25.80;66.50
55083;DHT22;40978;52.850;6.506;2022-07-23T13:36:09;25.90;65.20
55083;DHT22;40978;52.850;6.506;2022-07-23T13:38:36;26.00;67.90
55083;DHT22;40978;52.850;6.506;2022-07-23T13:41:02;26.20;67.30
55083;DHT22;40978;52.850;6.506;2022-07-23T13:43:29;26.50;65.40
55083;DHT22;40978;52.850;6.506;2022-07-23T13:45:54;26.30;63.90
55083;DHT22;40978;52.850;6.506;2022-07-23T13:48:21;26.00;65.50
55083;DHT22;40978;52.850;6.506;2022-07-23T13:50:47;26.00;65.70
55083;DHT22;40978;52.850;6.506;2022-07-23T13:53:22;26.20;65.70
55083;DHT22;40978;52.850;6.506;2022-07-23T13:55:49;26.40;65.10
55083;DHT22;40978;52.850;6.506;2022-07-23T13:58:16;26.50;64.70
55083;DHT22;40978;52.850;6.506;2022-07-23T14:00:45;26.60;65.10
55083;DHT22;40978;52.850;6.506;2022-07-23T14:03:11;26.40;64.20
55083;DHT22;40978;52.850;6.506;2022-07-23T14:05:36;26.40;65.80
55083;DHT22;40978;52.850;6.506;2022-07-23T14:08:03;26.50;64.80
55083;DHT22;40978;52.850;6.506;2022-07-23T14:10:29;26.60;63.30
55083;DHT22;40978;52.850;6.506;2022-07-23T14:12:55;26.70;63.10
55083;DHT22;40978;52.850;6.506;2022-07-23T14:15:22;26.60;61.80
55083;DHT22;40978;52.850;6.506;2022-07-23T14:17:48;26.50;62.20
55083;DHT22;40978;52.850;6.506;2022-07-23T14:20:14;26.40;61.20
55083;DHT22;40978;52.850;6.506;2022-07-23T14:22:41;25.90;61.90
55083;DHT22;40978;52.850;6.506;2022-07-23T14:25:08;25.40;61.60
55083;DHT22;40978;52.850;6.506;2022-07-23T14:27:34;25.10;63.10
55083;DHT22;40978;52.850;6.506;2022-07-23T14:30:00;24.90;64.70
55083;DHT22;40978;52.850;6.506;2022-07-23T14:32:26;24.60;65.10
55083;DHT22;40978;52.850;6.506;2022-07-23T14:34:52;24.50;66.30
55083;DHT22;40978;52.850;6.506;2022-07-23T14:37:18;24.50;67.00
55083;DHT22;40978;52.850;6.506;2022-07-23T14:39:44;24.40;65.00
55083;DHT22;40978;52.850;6.506;2022-07-23T14:42:11;24.20;65.80
55083;DHT22;40978;52.850;6.506;2022-07-23T14:44:37;24.10;67.00
55083;DHT22;40978;52.850;6.506;2022-07-23T14:47:04;23.90;67.20
55083;DHT22;40978;52.850;6.506;2022-07-23T14:49:33;23.80;68.50
55083;DHT22;40978;52.850;6.506;2022-07-23T14:51:59;23.80;68.40
55083;DHT22;40978;52.850;6.506;2022-07-23T14:54:26;23.80;68.80
55083;DHT22;40978;52.850;6.506;2022-07-23T14:56:53;23.80;68.50
55083;DHT22;40978;52.850;6.506;2022-07-23T14:59:19;24.00;70.00
55083;DHT22;40978;52.850;6.506;2022-07-23T15:01:45;24.00;68.60
55083;DHT22;40978;52.850;6.506;2022-07-23T15:04:11;23.90;68.40
55083;DHT22;40978;52.850;6.506;2022-07-23T15:06:36;23.70;68.60
55083;DHT22;40978;52.850;6.506;2022-07-23T15:09:04;23.50;69.70
55083;DHT22;40978;52.850;6.506;2022-07-23T15:11:31;23.40;70.80
55083;DHT22;40978;52.850;6.506;2022-07-23T15:14:00;23.40;70.90
55083;DHT22;40978;52.850;6.506;2022-07-23T15:16:26;23.50;70.50
55083;DHT22;40978;52.850;6.506;2022-07-23T15:18:51;23.60;70.20
55083;DHT22;40978;52.850;6.506;2022-07-23T15:21:17;23.70;70.70
55083;DHT22;40978;52.850;6.506;2022-07-23T15:23:43;23.70;70.40
55083;DHT22;40978;52.850;6.506;2022-07-23T15:26:08;23.80;70.00
55083;DHT22;40978;52.850;6.506;2022-07-23T15:28:35;23.90;70.70
55083;DHT22;40978;52.850;6.506;2022-07-23T15:31:01;23.90;69.60
55083;DHT22;40978;52.850;6.506;2022-07-23T15:33:27;23.80;71.00
55083;DHT22;40978;52.850;6.506;2022-07-23T15:35:53;23.80;71.70
55083;DHT22;40978;52.850;6.506;2022-07-23T15:38:21;23.80;71.40
55083;DHT22;40978;52.850;6.506;2022-07-23T15:40:46;23.60;71.20
55083;DHT22;40978;52.850;6.506;2022-07-23T15:43:12;23.50;71.80
55083;DHT22;40978;52.850;6.506;2022-07-23T15:45:39;23.40;73.20
55083;DHT22;40978;52.850;6.506;2022-07-23T15:48:05;23.30;73.50
55083;DHT22;40978;52.850;6.506;2022-07-23T15:50:31;23.40;72.90
55083;DHT22;40978;52.850;6.506;2022-07-23T15:52:56;23.40;73.10
55083;DHT22;40978;52.850;6.506;2022-07-23T15:55:22;23.50;72.70
55083;DHT22;40978;52.850;6.506;2022-07-23T15:57:49;23.60;72.20
55083;DHT22;40978;52.850;6.506;2022-07-23T16:00:15;23.60;72.60
55083;DHT22;40978;52.850;6.506;2022-07-23T16:02:41;23.50;73.00
55083;DHT22;40978;52.850;6.506;2022-07-23T16:05:07;23.40;72.50
55083;DHT22;40978;52.850;6.506;2022-07-23T16:07:34;23.40;73.40
55083;DHT22;40978;52.850;6.506;2022-07-23T16:10:04;23.40;74.10
55083;DHT22;40978;52.850;6.506;2022-07-23T16:12:30;23.30;72.80
55083;DHT22;40978;52.850;6.506;2022-07-23T16:14:56;23.30;74.10
55083;DHT22;40978;52.850;6.506;2022-07-23T16:17:21;23.20;73.80
55083;DHT22;40978;52.850;6.506;2022-07-23T16:19:47;23.20;73.40
55083;DHT22;40978;52.850;6.506;2022-07-23T16:22:13;23.20;73.50
55083;DHT22;40978;52.850;6.506;2022-07-23T16:24:42;23.20;73.50
55083;DHT22;40978;52.850;6.506;2022-07-23T16:27:08;23.20;73.80
55083;DHT22;40978;52.850;6.506;2022-07-23T16:29:33;23.10;74.00
55083;DHT22;40978;52.850;6.506;2022-07-23T16:31:59;22.90;73.80
55083;DHT22;40978;52.850;6.506;2022-07-23T16:34:25;22.90;73.60